Flowerfield, New York
Current Conditions -  °F | °C
As of 8:56 AM on Saturday 22 Nov 2014 (Local Time) from KISP Reporting Station
Scattered Clouds Scattered Clouds  
Wind Chill: 25°   Ceiling: Unl
Heat Index: 34°   Visibility: 10mi
Dew Point: 16°   Wind: 14mph
Humidity: 48%   Direction: 250°WSW
Pressure: 30.46"   Gusts: NA
Location:  40.8903°N, 73.169°W
Report Text: KISP 221356Z 25012KT 10SM SCT250 01/M09 A3046 RMK AO2 SLP314 T00111089
Loading
Personal Weather Stations






























Interactive Weather Map New forecast layout! Learn more

10-Day Weather Forecast

Advertisements
Track Severe Weather on mobile